Toulouse-Blagnac Airport

METAR LFBO TAF LFBO
3 °C
°C
-
°C
32m
Alter
08:32:26
LT
07:32
UTC
0 ft

1.000

2.000

3.000

4.000

5.000

OVC 3.400
VFR
<?= Yii::t('app', 'Wind direction') ?> <?= Yii::t('app', 'of'); ?>
290°
17:59
Sonne unter
81%
Luftfeuchtigkeit
Windscherung
Geschlossen/Schnee
RWY-Sichtweite
RWY Zustand
Vert. Sichtweite
Min. Sichtbarkeit
CAVOK
Trend
Korrektur
Besonderer Bericht
1023 hPa
QNH
METAR LFBO 280700Z AUTO 29009KT 9999 OVC034 03/00 Q1023 TEMPO BKN010
Himmel bedeckt
5 kt
5 kt
08:00
MVFR
12 kt
09:00
MVFR
12 kt
10:00
MVFR
12 kt
11:00
VFR
12 kt
12:00
VFR
12 kt
13:00
VFR
12 kt
14:00
VFR
12 kt
10 km+
Sichtweite
3.400 ft
Wolkendecke
9 kt
Wind
metar-taf.com/LFBO

Metar-Taf.com

Visueller Decoder

Wir und Dritte verfolgen dein Internetverhalten auf unserer Website mit Cookies. Wenn du fortfährst, gehen wir davon aus, dass du mit unserer Cookie-Richtlinie einverstanden bist.